Latest Weather Observations for White Cliffs AWS

IDN60801

Issued at 2:35 pm EST Wednesday 20 August 2014 (issued every 30 minutes, with the page automatically refreshed every 10 minutes)

About weather observations | Map of weather stations | Latest weather observations for NSW | Other Formats
Station Details ID: 046129 Name: WHITE CLIFFS AWS Lat: -30.85 Lon: 143.07 Height: 158.0 m
Data from the previous 72 hours. | See also: Recent months at White Cliffs AWS
Date/Time
EST
Temp
°C
App
Temp
°C
Dew
Point
Rel
Hum
%
Delta-T
°C
Wind Press
QNH
hPa
Press
MSL
hPa
Rain
since 9 am
mm
Dir
 
Spd
km/h
Gust
km/h
Spd
kts
Gust
kts
20/02:30pm 18.8 16.3 6.6 45 6.1 ESE 9 13 5 7 1021.8 - 0.0
20/02:00pm 19.0 16.2 7.1 46 6.0 ENE 11 20 6 11 1022.0 1022.0 0.0
20/01:30pm 18.1 15.8 7.5 50 5.4 E 9 15 5 8 1022.3 - 0.0
20/01:00pm 17.5 15.3 7.8 53 4.9 ESE 9 17 5 9 1022.8 1022.8 0.0
20/12:30pm 17.4 14.9 8.0 54 4.8 E 11 17 6 9 1023.4 - 0.0
20/12:00pm 17.4 14.1 8.0 54 4.8 E 15 20 8 11 1023.8 1023.7 0.0
20/11:30am 16.5 13.2 8.2 58 4.2 E 15 19 8 10 1024.2 - 0.0
20/11:00am 15.8 13.1 8.8 63 3.6 E 13 17 7 9 1024.4 1024.3 0.0
20/10:30am 15.0 12.5 8.3 64 3.4 ESE 11 17 6 9 1024.5 - 0.0
20/10:00am 14.3 12.3 8.5 68 2.9 ESE 9 13 5 7 1024.5 1024.4 0.0
20/09:30am 13.0 11.3 8.3 73 2.4 E 7 11 4 6 1024.4 - 0.0
20/09:00am 11.9 10.0 7.6 75 2.1 SSE 7 11 4 6 1024.3 1024.2 0.0
20/08:30am 10.4 8.5 7.5 82 1.4 S 7 9 4 5 1024.1 - 0.0
20/08:00am 9.4 7.0 7.0 85 1.1 SSE 9 13 5 7 1023.9 1023.8 0.0
20/07:30am 8.3 5.8 6.6 89 0.8 SSE 9 13 5 7 1023.6 - 0.0
20/07:00am 7.9 5.0 6.5 91 0.6 SSE 11 15 6 8 1023.2 1023.1 0.0
20/06:30am 7.7 5.5 6.3 91 0.6 SE 7 11 4 6 1022.8 - 0.0
20/06:00am 8.1 3.7 6.6 90 0.7 S 19 20 10 11 1022.5 1022.5 0.0
20/05:30am 8.1 3.7 6.6 90 0.7 S 19 20 10 11 1022.3 - 0.0
20/05:00am 8.3 4.3 6.8 90 0.7 S 17 19 9 10 1022.2 1022.2 0.0
20/04:30am 8.4 4.8 6.7 89 0.8 S 15 17 8 9 1022.1 - 0.0
20/04:00am 8.6 4.7 7.1 90 0.7 SSW 17 17 9 9 1022.0 1022.0 0.0
20/03:30am 8.4 4.8 6.9 90 0.7 S 15 17 8 9 1021.9 - 0.0
20/03:00am 8.1 4.5 6.7 91 0.6 SSW 15 17 8 9 1022.0 1022.0 0.0
20/02:30am 8.3 4.7 6.8 90 0.7 SSW 15 17 8 9 1022.2 - 0.0
20/02:00am 8.6 4.7 6.9 89 0.8 SSW 17 19 9 10 1022.2 1022.2 0.0
20/01:30am 8.9 4.6 7.0 88 0.9 SSW 19 19 10 10 1022.3 - 0.0
20/01:00am 9.0 5.1 7.1 88 0.9 SSW 17 19 9 10 1022.3 1022.3 0.0
20/12:30am 9.3 5.8 7.4 88 0.9 SSW 15 17 8 9 1022.3 - 0.0
20/12:00am 9.4 5.9 7.3 87 1.0 SSW 15 17 8 9 1022.4 1022.4 0.0
 
Date/Time
EST
Temp
°C
App
Temp
°C
Dew
Point
Rel
Hum
%
Delta-T
°C
Wind Press
QNH
hPa
Press
MSL
hPa
Rain
since 9 am
mm
Dir
 
Spd
km/h
Gust
km/h
Spd
kts
Gust
kts
19/11:30pm 9.4 5.9 7.2 86 1.0 SSW 15 15 8 8 1022.5 - 0.0
19/11:00pm 10.0 6.5 7.4 84 1.2 SSW 15 17 8 9 1022.5 1022.5 0.0
19/10:30pm 10.3 6.8 7.4 82 1.4 SSW 15 17 8 9 1022.4 - 0.0
19/10:00pm 10.9 7.5 7.6 80 1.6 S 15 17 8 9 1022.4 1022.4 0.0
19/09:30pm 11.3 8.3 7.8 79 1.7 S 13 15 7 8 1022.4 - 0.0
19/09:00pm 11.5 8.9 7.6 77 1.9 S 11 13 6 7 1022.4 1022.4 0.0
19/08:30pm 11.9 8.9 7.8 76 2.0 S 13 15 7 8 1022.2 - 0.0
19/08:00pm 11.7 9.1 7.6 76 2.0 S 11 11 6 6 1022.1 1022.1 0.0
19/07:30pm 12.8 10.1 7.5 70 2.6 S 11 13 6 7 1022.0 - 0.0
19/07:00pm 13.4 10.2 7.0 65 3.1 S 13 15 7 8 1021.6 1021.6 0.0
19/06:30pm 14.2 10.6 6.6 60 3.7 S 15 17 8 9 1021.3 - 0.0
19/06:00pm 15.1 10.9 5.6 53 4.5 SSW 17 20 9 11 1021.2 1021.2 0.0
19/05:30pm 15.9 11.5 4.6 47 5.3 S 17 20 9 11 1020.9 - 0.0
19/05:00pm 16.3 11.8 4.0 44 5.7 SSW 17 24 9 13 1021.0 1021.0 0.0
19/04:30pm 16.3 11.1 3.7 43 5.9 SSW 20 30 11 16 1020.8 - 0.0
19/04:00pm 16.5 12.1 4.9 46 5.5 SSW 17 24 9 13 1020.7 1020.7 0.0
19/03:30pm 16.4 11.6 4.8 46 5.5 SW 19 28 10 15 1020.7 - 0.0
19/03:00pm 16.3 11.9 5.0 47 5.4 SSW 17 24 9 13 1020.7 1020.7 0.0
19/02:30pm 16.0 11.6 5.0 48 5.3 SW 17 26 9 14 1020.7 - 0.0
19/02:00pm 16.0 11.0 4.7 47 5.3 SW 20 30 11 16 1020.9 1020.9 0.0
19/01:30pm 15.6 10.9 5.2 50 5.0 S 19 20 10 11 1021.1 - 0.0
19/01:00pm 15.0 10.9 6.3 56 4.2 SW 17 22 9 12 1021.4 1021.4 0.0
19/12:30pm 14.7 10.2 6.3 57 4.1 SSW 19 30 10 16 1021.8 - 0.0
19/12:00pm 13.9 9.4 7.0 63 3.4 SSW 20 28 11 15 1022.2 1022.2 0.0
19/11:30am 13.5 9.0 7.1 65 3.1 SSW 20 30 11 16 1022.6 - 0.0
19/11:00am 12.7 8.1 6.7 67 2.9 SSW 20 28 11 15 1022.9 1022.9 0.0
19/10:30am 11.7 7.1 5.8 67 2.8 SSW 19 24 10 13 1022.9 - 0.0
19/10:00am 10.7 5.8 5.3 69 2.5 S 20 26 11 14 1023.0 1023.0 0.0
19/09:30am 9.8 4.9 5.0 72 2.2 SSW 20 24 11 13 1022.8 - 0.0
19/09:00am 8.6 3.7 4.2 74 1.9 SSW 19 24 10 13 1022.8 1022.8 0.0
19/08:30am 7.6 2.6 3.8 77 1.6 SSW 19 26 10 14 1022.5 - 0.0
19/08:00am 6.6 2.7 3.6 81 1.3 SSW 13 17 7 9 1022.3 1022.3 0.0
19/07:30am 5.6 2.4 3.1 84 1.0 SSW 9 13 5 7 1022.1 - 0.0
19/07:00am 5.2 2.5 2.7 84 1.0 SW 6 7 3 4 1021.8 1021.8 0.0
19/06:30am 5.4 3.5 2.8 83 1.1 S 2 9 1 5 1021.4 - 0.0
19/06:00am 5.9 2.7 2.9 81 1.2 SSW 9 13 5 7 1021.1 1021.1 0.0
19/05:30am 5.9 2.7 3.1 82 1.2 SW 9 11 5 6 1021.0 - 0.0
19/05:00am 6.2 3.1 3.4 82 1.2 SW 9 13 5 7 1020.9 1020.9 0.0
19/04:30am 6.5 2.6 3.3 80 1.4 SSW 13 19 7 10 1020.7 - 0.0
19/04:00am 6.9 3.4 3.5 79 1.4 SSW 11 17 6 9 1020.5 1020.5 0.0
19/03:30am 6.5 2.7 3.7 82 1.2 SSW 13 13 7 7 1020.5 - 0.0
19/03:00am 6.8 3.0 3.8 81 1.3 SW 13 15 7 8 1020.8 1020.8 0.0
19/02:30am 7.5 2.5 3.7 77 1.6 SSW 19 20 10 11 1021.0 - 0.0
19/02:00am 7.3 3.2 4.1 80 1.4 SW 15 19 8 10 1021.0 1021.0 0.0
19/01:30am 7.2 3.5 4.2 81 1.3 WSW 13 15 7 8 1021.1 - 0.0
19/01:00am 7.5 3.8 4.3 80 1.4 SW 13 15 7 8 1021.2 1021.2 0.0
19/12:30am 8.1 4.4 4.5 78 1.6 SW 13 15 7 8 1021.2 - 0.0
19/12:00am 8.4 4.7 4.6 77 1.7 SW 13 17 7 9 1021.3 1021.3 0.0
 
Date/Time
EST
Temp
°C
App
Temp
°C
Dew
Point
Rel
Hum
%
Delta-T
°C
Wind Press
QNH
hPa
Press
MSL
hPa
Rain
since 9 am
mm
Dir
 
Spd
km/h
Gust
km/h
Spd
kts
Gust
kts
18/11:30pm 8.3 4.7 4.9 79 1.5 SW 13 15 7 8 1021.3 - 0.0
18/11:00pm 8.5 4.9 5.1 79 1.5 SW 13 15 7 8 1021.2 1021.2 0.0
18/10:30pm 8.7 5.2 5.3 79 1.5 SW 13 15 7 8 1021.2 - 0.0
18/10:00pm 8.7 5.6 5.4 80 1.5 SW 11 13 6 7 1021.3 1021.3 0.0
18/09:30pm 8.9 6.2 5.6 80 1.5 SW 9 11 5 6 1021.2 - 0.0
18/09:00pm 9.1 6.1 5.8 80 1.5 WSW 11 13 6 7 1021.1 1021.1 0.0
18/08:30pm 9.7 6.2 5.5 75 1.9 SW 13 15 7 8 1020.9 - 0.0
18/08:00pm 10.7 6.4 5.3 69 2.5 SW 17 20 9 11 1020.5 1020.5 0.0
18/07:30pm 11.3 6.6 5.0 65 2.9 SSW 19 20 10 11 1020.2 - 0.0
18/07:00pm 11.7 7.0 5.1 64 3.0 SSW 19 20 10 11 1019.9 1019.9 0.0
18/06:30pm 12.5 7.5 4.7 59 3.6 SSW 20 24 11 13 1019.4 - 0.0
18/06:00pm 13.2 7.4 4.6 56 4.0 SSW 24 32 13 17 1019.0 1018.9 0.0
18/05:30pm 14.0 8.2 4.3 52 4.5 SSW 24 33 13 18 1018.6 - 0.0
18/05:00pm 14.5 8.3 4.5 51 4.7 SW 26 32 14 17 1018.3 1018.2 0.0
18/04:30pm 14.9 8.6 4.0 48 5.1 SW 26 33 14 18 1018.1 - 0.0
18/04:00pm 14.9 8.3 4.3 49 4.9 SW 28 37 15 20 1018.0 1017.9 0.0
18/03:30pm 15.2 9.2 5.1 51 4.8 SSW 26 33 14 18 1018.0 - 0.0
18/03:00pm 14.8 8.6 4.5 50 4.8 SW 26 32 14 17 1017.9 1017.8 0.0
18/02:30pm 14.8 8.4 5.1 52 4.6 SW 28 39 15 21 1018.0 - 0.0
18/02:00pm 14.5 8.5 5.3 54 4.4 SSW 26 39 14 21 1018.0 1017.9 0.0
18/01:30pm 14.4 7.2 5.2 54 4.4 SSW 32 41 17 22 1018.1 - 0.0
18/01:00pm 14.3 7.5 4.9 53 4.4 SSW 30 41 16 22 1018.4 1018.3 0.0
18/12:30pm 14.2 6.5 5.3 55 4.2 SW 35 43 19 23 1018.7 - 0.0
18/12:00pm 13.4 6.0 4.8 56 4.0 SSW 33 44 18 24 1019.1 1019.0 0.0
18/11:30am 12.8 5.4 5.2 60 3.6 SW 33 44 18 24 1019.4 - 0.0
18/11:00am 12.1 5.5 5.9 66 2.9 SW 30 37 16 20 1019.6 1019.6 0.0
18/10:30am 11.2 4.5 5.7 69 2.6 SW 30 39 16 21 1019.8 - 0.0
18/10:00am 10.7 4.4 5.7 71 2.3 SW 28 35 15 19 1019.8 1019.8 0.0
18/09:30am 10.1 4.1 5.5 73 2.1 SSW 26 35 14 19 1019.8 - 0.0
18/09:00am 9.4 4.2 5.4 76 1.8 SW 22 30 12 16 1019.7 1019.7 0.2
18/08:30am 8.3 3.4 4.9 79 1.5 SW 20 26 11 14 1019.7 - 0.2
18/08:00am 7.3 3.2 4.6 83 1.2 SW 15 20 8 11 1019.4 1019.4 0.2
18/07:30am 6.2 3.2 4.2 87 0.9 WSW 9 11 5 6 1019.1 - 0.2
18/07:00am 6.1 2.3 4.1 87 0.9 SW 13 17 7 9 1018.5 1018.4 0.2
18/06:30am 6.5 2.4 4.2 85 1.0 SW 15 17 8 9 1018.1 - 0.2
18/06:00am 6.9 2.5 4.6 85 1.0 SSW 17 20 9 11 1017.7 1017.6 0.2
18/05:30am 6.7 2.7 4.7 87 0.9 SW 15 17 8 9 1017.6 - 0.2
18/05:00am 7.0 3.0 4.7 85 1.0 SSW 15 19 8 10 1017.3 1017.2 0.2
18/04:30am 7.1 3.0 4.6 84 1.1 SW 15 17 8 9 1017.4 - 0.2
18/04:00am 7.7 3.7 4.7 81 1.3 SW 15 19 8 10 1017.3 1017.2 0.2
18/03:30am 8.2 3.8 5.0 80 1.4 SW 17 20 9 11 1017.3 - 0.2
18/03:00am 8.5 3.8 5.3 80 1.4 SSW 19 24 10 13 1017.4 1017.3 0.2
18/02:30am 8.5 3.7 5.4 81 1.4 SSW 20 24 11 13 1017.7 - 0.2
18/02:00am 8.7 3.5 5.6 81 1.4 SW 22 24 12 13 1017.6 1017.5 0.2
18/01:30am 8.9 3.7 5.5 79 1.6 SW 22 26 12 14 1017.6 - 0.2
18/01:00am 9.2 4.0 5.6 78 1.6 SW 22 30 12 16 1017.7 1017.6 0.2
18/12:30am 9.2 4.4 5.6 78 1.6 SW 20 26 11 14 1017.5 - 0.2
18/12:00am 9.3 4.5 5.5 77 1.7 SW 20 24 11 13 1017.4 1017.3 0.2
 
Date/Time
EST
Temp
°C
App
Temp
°C
Dew
Point
Rel
Hum
%
Delta-T
°C
Wind Press
QNH
hPa
Press
MSL
hPa
Rain
since 9 am
mm
Dir
 
Spd
km/h
Gust
km/h
Spd
kts
Gust
kts
17/11:30pm 9.3 4.7 5.5 77 1.7 SW 19 20 10 11 1017.4 - 0.2
17/11:00pm 9.6 5.8 5.6 76 1.8 WSW 15 19 8 10 1017.5 1017.4 0.2
17/10:30pm 10.3 5.5 5.5 72 2.2 SW 20 24 11 13 1017.5 - 0.2
17/10:00pm 10.7 5.5 5.5 70 2.4 SSW 22 28 12 15 1017.5 1017.4 0.2
17/09:30pm 9.8 6.3 5.4 74 2.0 SW 13 17 7 9 1017.3 - 0.2
17/09:00pm 10.5 6.7 5.7 72 2.2 SW 15 17 8 9 1017.1 1017.0 0.2
17/08:30pm 11.4 7.1 5.3 66 2.8 SW 17 20 9 11 1017.0 - 0.2
17/08:00pm 11.8 7.2 5.4 65 3.0 SSW 19 22 10 12 1016.5 1016.4 0.2
17/07:30pm 12.6 7.4 5.5 62 3.3 SSW 22 32 12 17 1015.9 - 0.2
17/07:00pm 12.7 8.3 6.5 66 3.0 SW 19 22 10 12 1015.6 1015.6 0.2
17/06:30pm 13.1 8.8 6.9 66 3.0 SW 19 24 10 13 1015.0 - 0.2
17/06:00pm 14.3 7.6 5.7 56 4.1 SSW 30 41 16 22 1014.4 1014.4 0.2
17/05:30pm 15.0 7.9 6.3 56 4.2 SSW 33 43 18 23 1013.7 - 0.2
17/05:00pm 15.7 8.2 6.4 54 4.6 SW 35 44 19 24 1013.3 1013.2 0.2
17/04:30pm 16.0 8.5 6.4 53 4.7 SSW 35 46 19 25 1013.0 - 0.2
17/04:00pm 16.4 8.3 6.8 53 4.8 SW 39 48 21 26 1012.9 1012.8 0.2
17/03:30pm 16.2 8.0 6.6 53 4.7 SSW 39 52 21 28 1012.7 - 0.2
17/03:00pm 16.7 8.2 7.1 53 4.8 SW 41 50 22 27 1012.4 1012.3 0.2

Other Formats:

Comma delimited format used in spreadsheet applications
http://www.bom.gov.au/fwo/IDN60801/IDN60801.95699.axf

JavaScript Object Notation format (JSON) in row-major order
http://www.bom.gov.au/fwo/IDN60801/IDN60801.95699.json